Time;durP1;ratioP1;P1;durP2;ratioP2;P2;SDS_P1;SDS_P2;PMS_P1;PMS_P2;Temp;Humidity;BMP_temperature;BMP_pressure;BME280_temperature;BME280_humidity;BME280_pressure;Samples;Min_cycle;Max_cycle;Signal;HPM_P1;HPM_P2
2023/01/25 00:03:50;;;;;;;107.20;57.10;;;;;;;4.91;100.00;102357.17;181003;1267;43080;-73
2023/01/25 00:07:53;;;;;;;88.90;55.30;;;;;;;4.93;100.00;102352.58;180919;1266;43032;-73
2023/01/25 00:12:00;;;;;;;101.20;61.20;;;;;;;4.96;100.00;102354.08;181036;1267;43780;-73
2023/01/25 00:16:04;;;;;;;102.40;56.70;;;;;;;5.02;100.00;102356.38;181055;1266;59767;-73
2023/01/25 00:20:08;;;;;;;92.30;54.40;;;;;;;5.08;100.00;102353.24;180927;1267;43717;-75
2023/01/25 00:24:13;;;;;;;81.50;52.40;;;;;;;5.11;100.00;102346.85;180969;1267;42998;-73
2023/01/25 00:28:16;;;;;;;95.60;56.40;;;;;;;5.11;100.00;102341.56;181018;1266;43096;-74
2023/01/25 00:32:19;;;;;;;95.90;54.40;;;;;;;5.13;100.00;102339.23;180950;1267;43703;-73
2023/01/25 00:36:26;;;;;;;95.60;56.30;;;;;;;5.17;100.00;102343.17;181020;1267;58399;-74
2023/01/25 00:40:29;;;;;;;89.60;54.30;;;;;;;5.18;100.00;102332.95;180913;1267;43726;-73
2023/01/25 00:44:32;;;;;;;90.00;49.90;;;;;;;5.22;100.00;102325.98;181007;1266;43719;-74
2023/01/25 00:48:34;;;;;;;95.70;55.90;;;;;;;5.24;100.00;102315.02;180944;1267;44204;-73
2023/01/25 00:52:42;;;;;;;103.50;56.40;;;;;;;5.29;100.00;102304.48;181018;1266;43717;-74
2023/01/25 00:56:45;;;;;;;96.70;57.10;;;;;;;5.30;100.00;102304.65;181029;1266;58634;-73
2023/01/25 01:00:53;;;;;;;84.40;52.80;;;;;;;5.32;100.00;102298.80;180942;1267;43691;-73
2023/01/25 01:04:56;;;;;;;96.10;53.90;;;;;;;5.30;99.99;102304.66;180933;1267;43054;-74
2023/01/25 01:08:59;;;;;;;87.60;51.40;;;;;;;5.27;99.95;102298.92;180987;1266;43120;-74
2023/01/25 01:13:02;;;;;;;68.00;41.10;;;;;;;5.21;99.70;102293.27;181009;1267;43773;-75
2023/01/25 01:17:05;;;;;;;62.10;38.30;;;;;;;5.15;99.23;102291.17;181022;1267;58134;-73
2023/01/25 01:21:09;;;;;;;77.70;48.20;;;;;;;5.06;99.49;102282.95;180921;1266;43125;-73
2023/01/25 01:25:12;;;;;;;83.50;49.10;;;;;;;5.05;99.96;102273.14;180978;1266;43698;-73
2023/01/25 01:29:41;;;;;;;84.80;47.80;;;;;;;5.06;99.99;102267.66;181007;1267;43590;-73
2023/01/25 01:33:47;;;;;;;82.80;51.00;;;;;;;5.08;100.00;102259.68;180944;1267;43023;-75
2023/01/25 01:37:53;;;;;;;85.80;49.70;;;;;;;5.15;100.00;102255.10;180863;1267;59766;-72
2023/01/25 01:41:56;;;;;;;90.50;54.10;;;;;;;5.18;100.00;102253.09;180990;1267;43106;-72
2023/01/25 01:46:02;;;;;;;66.10;42.00;;;;;;;5.19;100.00;102252.88;180909;1267;43068;-72
2023/01/25 01:50:17;;;;;;;64.90;44.40;;;;;;;5.15;99.73;102248.95;180904;1267;43595;-72
2023/01/25 01:54:56;;;;;;;71.10;42.00;;;;;;;5.04;99.96;102241.52;180953;1267;42995;-72
2023/01/25 01:59:01;;;;;;;77.60;46.80;;;;;;;5.04;100.00;102242.04;180990;1267;57891;-75
2023/01/25 02:03:04;;;;;;;46.70;29.80;;;;;;;4.98;100.00;102239.55;180932;1268;43088;-74
2023/01/25 02:07:14;;;;;;;41.10;25.80;;;;;;;4.70;100.00;102242.92;180907;1268;43703;-73
2023/01/25 02:11:20;;;;;;;35.60;21.20;;;;;;;4.46;100.00;102241.41;180933;1268;43097;-74
2023/01/25 02:15:39;;;;;;;28.70;19.80;;;;;;;4.22;100.00;102229.15;180862;1267;42995;-74
2023/01/25 02:24:41;;;;;;;38.80;22.70;;;;;;;4.19;100.00;102218.53;181031;1267;43657;-73
2023/01/25 02:28:56;;;;;;;25.70;17.60;;;;;;;4.24;100.00;102222.27;180858;1268;43077;-74
2023/01/25 02:32:59;;;;;;;30.70;18.40;;;;;;;4.20;100.00;102222.54;180923;1268;43839;-72
2023/01/25 02:37:02;;;;;;;31.70;19.20;;;;;;;4.24;100.00;102223.50;180819;1268;43028;-74
2023/01/25 02:41:11;;;;;;;32.00;17.50;;;;;;;4.36;100.00;102225.14;180881;1268;59351;-73
2023/01/25 02:45:17;;;;;;;32.60;19.10;;;;;;;4.43;100.00;102231.98;180942;1268;43074;-72
2023/01/25 02:49:20;;;;;;;28.30;17.90;;;;;;;4.53;100.00;102231.40;180926;1266;43612;-72
2023/01/25 02:59:09;;;;;;;31.10;17.40;;;;;;;4.58;100.00;102220.20;181053;1267;43452;-74
2023/01/25 03:04:10;;;;;;;24.10;17.00;;;;;;;4.53;100.00;102216.64;180962;1267;58114;-75
2023/01/25 03:08:13;;;;;;;25.50;14.50;;;;;;;4.55;100.00;102220.27;181026;1267;43735;-73
2023/01/25 03:12:15;;;;;;;19.80;13.80;;;;;;;4.59;100.00;102218.41;181013;1267;43591;-73
2023/01/25 03:16:18;;;;;;;16.10;10.60;;;;;;;4.57;99.83;102216.53;180928;1267;43095;-73
2023/01/25 03:20:22;;;;;;;20.10;10.40;;;;;;;4.57;99.47;102213.73;180935;1267;43056;-75
2023/01/25 03:24:24;;;;;;;17.40;13.60;;;;;;;4.34;99.98;102211.67;181017;1265;58063;-73
2023/01/25 03:28:27;;;;;;;15.20;9.30;;;;;;;4.32;100.00;102209.96;181080;1265;43645;-73
2023/01/25 03:32:53;;;;;;;21.50;10.60;;;;;;;4.38;100.00;102211.58;181094;1267;43007;-72
2023/01/25 03:36:56;;;;;;;16.80;10.50;;;;;;;4.39;100.00;102211.88;181013;1266;43674;-73
2023/01/25 03:40:59;;;;;;;17.40;8.90;;;;;;;4.34;100.00;102207.98;180948;1266;43698;-73
2023/01/25 03:45:02;;;;;;;15.90;11.00;;;;;;;4.38;100.00;102206.64;180946;1267;58925;-74
2023/01/25 03:49:05;;;;;;;14.60;11.30;;;;;;;4.49;100.00;102201.27;180893;1267;43247;-73
2023/01/25 03:53:18;;;;;;;17.40;11.60;;;;;;;4.60;100.00;102198.71;180939;1267;43732;-74
2023/01/25 03:57:21;;;;;;;14.70;10.80;;;;;;;4.67;100.00;102189.73;180939;1266;43382;-73
2023/01/25 04:01:24;;;;;;;23.20;14.40;;;;;;;4.71;99.27;102181.19;181052;1267;43022;-73
2023/01/25 04:05:27;;;;;;;16.80;11.40;;;;;;;4.66;99.49;102176.95;180908;1267;58063;-73
2023/01/25 04:09:33;;;;;;;16.80;11.80;;;;;;;4.66;99.75;102179.05;180911;1267;43042;-72
2023/01/25 04:13:37;;;;;;;12.60;11.00;;;;;;;4.68;99.27;102170.38;180995;1267;43717;-73
2023/01/25 04:17:40;;;;;;;22.20;13.20;;;;;;;4.67;99.22;102165.84;180949;1266;43071;-75
2023/01/25 04:22:09;;;;;;;17.70;11.60;;;;;;;4.54;99.95;102159.49;180960;1267;43769;-74
2023/01/25 04:26:13;;;;;;;14.80;10.50;;;;;;;4.60;100.00;102159.36;180981;1266;60366;-75
2023/01/25 04:36:08;;;;;;;17.10;10.90;;;;;;;4.70;99.85;102152.06;181078;1267;43015;-73
2023/01/25 04:46:04;;;;;;;27.40;16.50;;;;;;;4.44;100.00;102152.91;181031;1266;43127;-74
2023/01/25 04:50:08;;;;;;;24.60;16.00;;;;;;;4.45;100.00;102156.39;180980;1267;57038;-74
2023/01/25 04:54:15;;;;;;;21.40;13.30;;;;;;;4.47;100.00;102146.49;180898;1267;43030;-74
2023/01/25 04:58:18;;;;;;;23.10;17.00;;;;;;;4.22;100.00;102141.17;181022;1266;42975;-75
2023/01/25 05:02:21;;;;;;;21.40;12.10;;;;;;;4.08;100.00;102142.22;181021;1266;43622;-74
2023/01/25 05:06:24;;;;;;;21.20;13.30;;;;;;;3.91;100.00;102138.42;180944;1266;43770;-74
2023/01/25 05:10:27;;;;;;;21.20;14.40;;;;;;;3.81;100.00;102139.17;180919;1267;57923;-74
2023/01/25 05:14:31;;;;;;;18.40;11.90;;;;;;;3.80;100.00;102138.15;180956;1267;43740;-77
2023/01/25 05:18:34;;;;;;;16.40;11.20;;;;;;;3.74;100.00;102133.02;181020;1267;43392;-74
2023/01/25 05:22:49;;;;;;;18.60;12.40;;;;;;;3.81;100.00;102126.36;180964;1267;43083;-75
2023/01/25 05:27:02;;;;;;;16.00;9.90;;;;;;;3.97;100.00;102128.11;180942;1267;43617;-75
2023/01/25 05:31:05;;;;;;;20.30;10.30;;;;;;;4.09;100.00;102116.90;180994;1267;59697;-77
2023/01/25 05:35:15;;;;;;;20.80;13.00;;;;;;;4.08;100.00;102118.34;181039;1267;43736;-74
2023/01/25 05:39:17;;;;;;;20.00;12.80;;;;;;;4.06;100.00;102121.20;180967;1267;43714;-74
2023/01/25 05:43:22;;;;;;;14.60;9.60;;;;;;;3.96;100.00;102116.90;180976;1267;43565;-77
2023/01/25 05:47:25;;;;;;;18.40;9.90;;;;;;;3.95;100.00;102113.21;180968;1267;43080;-77
2023/01/25 05:51:28;;;;;;;14.90;10.60;;;;;;;3.97;100.00;102107.55;181017;1267;58150;-76
2023/01/25 05:55:33;;;;;;;17.30;13.60;;;;;;;3.99;100.00;102104.16;181055;1267;42973;-76
2023/01/25 05:59:36;;;;;;;14.30;11.70;;;;;;;4.08;100.00;102101.67;181030;1266;43055;-76
2023/01/25 06:03:39;;;;;;;17.80;12.60;;;;;;;4.14;100.00;102095.71;181036;1266;43155;-76
2023/01/25 06:07:42;;;;;;;15.90;10.70;;;;;;;4.11;100.00;102086.33;181053;1266;43032;-75
2023/01/25 06:11:45;;;;;;;18.30;13.80;;;;;;;3.97;100.00;102077.36;181003;1267;57934;-80
2023/01/25 06:15:55;;;;;;;19.80;13.90;;;;;;;3.92;100.00;102079.96;180899;1267;43110;-79
2023/01/25 06:20:02;;;;;;;17.50;12.10;;;;;;;3.93;100.00;102077.29;180909;1266;43430;-76
2023/01/25 06:24:05;;;;;;;18.90;15.20;;;;;;;3.93;100.00;102085.89;181038;1266;43684;-76
2023/01/25 06:28:08;;;;;;;19.70;13.10;;;;;;;3.99;100.00;102088.53;181013;1267;43736;-75
2023/01/25 06:32:11;;;;;;;16.70;11.40;;;;;;;4.00;100.00;102083.08;180983;1267;56947;-77
2023/01/25 06:36:17;;;;;;;17.70;13.60;;;;;;;4.02;100.00;102077.92;180992;1267;43105;-75
2023/01/25 06:40:35;;;;;;;21.10;13.00;;;;;;;3.99;100.00;102076.44;180995;1267;43721;-76
2023/01/25 06:44:37;;;;;;;15.00;10.90;;;;;;;4.11;100.00;102078.41;180953;1266;43750;-76
2023/01/25 06:48:41;;;;;;;18.80;13.10;;;;;;;4.09;100.00;102079.87;181009;1267;43463;-75
2023/01/25 06:52:51;;;;;;;14.40;11.50;;;;;;;4.01;100.00;102081.29;180978;1266;58308;-75
2023/01/25 06:56:54;;;;;;;17.70;10.90;;;;;;;3.90;100.00;102081.05;181047;1267;43209;-76
2023/01/25 07:01:03;;;;;;;28.90;19.20;;;;;;;3.78;100.00;102079.06;181017;1267;43013;-78
2023/01/25 07:05:06;;;;;;;16.70;11.00;;;;;;;3.75;100.00;102074.04;181006;1267;43074;-76
2023/01/25 07:09:12;;;;;;;12.80;9.70;;;;;;;3.69;100.00;102070.66;181030;1267;43121;-76
2023/01/25 07:13:15;;;;;;;15.10;11.40;;;;;;;3.69;100.00;102065.58;180969;1268;59153;-76
2023/01/25 07:17:17;;;;;;;30.60;18.00;;;;;;;3.69;100.00;102065.41;180988;1267;43672;-77
2023/01/25 07:21:22;;;;;;;19.60;15.50;;;;;;;3.71;100.00;102064.84;181016;1266;43758;-75
2023/01/25 07:25:51;;;;;;;37.20;24.20;;;;;;;3.76;100.00;102062.09;180978;1267;43725;-76
2023/01/25 07:29:54;;;;;;;16.20;11.90;;;;;;;3.76;100.00;102061.04;181023;1267;43177;-77
2023/01/25 07:33:57;;;;;;;27.10;19.80;;;;;;;3.78;100.00;102059.22;180930;1266;57910;-77
2023/01/25 07:38:06;;;;;;;23.90;13.80;;;;;;;3.72;100.00;102054.45;181063;1265;43749;-77
2023/01/25 07:42:09;;;;;;;20.80;14.50;;;;;;;3.75;100.00;102044.20;181028;1267;43671;-76
2023/01/25 07:46:14;;;;;;;18.30;11.90;;;;;;;3.90;100.00;102048.40;181019;1267;43174;-77
2023/01/25 07:50:17;;;;;;;14.70;11.80;;;;;;;4.03;100.00;102045.09;180832;1267;43751;-76
2023/01/25 07:54:22;;;;;;;17.70;12.10;;;;;;;4.11;100.00;102043.30;180978;1267;57918;-76
2023/01/25 07:58:54;;;;;;;19.10;11.70;;;;;;;4.08;100.00;102038.80;180951;1267;43594;-77
2023/01/25 08:02:57;;;;;;;51.60;32.90;;;;;;;4.00;100.00;102036.02;180965;1267;43033;-77
2023/01/25 08:06:59;;;;;;;33.40;21.00;;;;;;;3.94;100.00;102027.23;180948;1267;43719;-76
2023/01/25 08:11:12;;;;;;;15.00;11.10;;;;;;;3.79;100.00;102026.73;181121;1267;43031;-77
2023/01/25 08:15:15;;;;;;;15.00;11.40;;;;;;;3.77;100.00;102027.13;181002;1267;58194;-76
2023/01/25 08:19:19;;;;;;;18.20;12.80;;;;;;;3.70;100.00;102022.77;180960;1267;43722;-76
2023/01/25 08:23:22;;;;;;;19.40;14.80;;;;;;;3.77;100.00;102025.20;181037;1267;43669;-76
2023/01/25 08:32:03;;;;;;;17.80;13.10;;;;;;;3.79;100.00;102009.55;174160;1264;77945;-76
2023/01/25 08:36:09;;;;;;;18.00;10.90;;;;;;;3.80;100.00;102009.70;181186;1264;57252;-76
2023/01/25 08:40:13;;;;;;;31.50;22.00;;;;;;;3.71;100.00;102007.79;181111;1264;43156;-77
2023/01/25 08:48:59;;;;;;;21.50;13.00;;;;;;;3.77;100.00;102014.49;150967;1257;78280;-79
2023/01/25 08:53:53;;;;;;;19.10;12.80;;;;;;;3.85;100.00;102012.71;153928;1260;74287;31
2023/01/25 09:03:53;;;;;;;14.90;10.80;;;;;;;3.93;100.00;101989.87;150809;1260;76143;-76
2023/01/25 09:08:15;;;;;;;11.40;8.50;;;;;;;3.94;100.00;101982.47;180711;1263;77240;-75
2023/01/25 09:12:18;;;;;;;16.30;8.80;;;;;;;4.05;100.00;101977.96;181006;1267;43150;-75
2023/01/25 09:16:27;;;;;;;14.30;8.20;;;;;;;4.03;100.00;101975.73;181047;1265;43175;-76
2023/01/25 09:20:32;;;;;;;7.70;6.90;;;;;;;4.11;100.00;101978.50;181069;1265;58438;-75
2023/01/25 09:24:37;;;;;;;13.60;9.90;;;;;;;4.11;99.56;101972.55;181076;1265;43032;-75
2023/01/25 09:28:45;;;;;;;17.30;12.70;;;;;;;4.06;99.82;101973.52;181095;1265;43676;-76
2023/01/25 09:32:49;;;;;;;11.40;7.70;;;;;;;4.06;100.00;101974.95;181058;1265;43211;-76
2023/01/25 09:37:19;;;;;;;10.00;7.10;;;;;;;3.95;100.00;101966.30;181020;1265;43422;-76
2023/01/25 09:42:00;;;;;;;10.80;8.40;;;;;;;3.95;100.00;101962.61;181037;1265;57156;-77
2023/01/25 09:46:52;;;;;;;11.80;10.70;;;;;;;3.87;100.00;101955.81;180262;1273;43780;-77
2023/01/25 09:55:49;;;;;;;13.30;10.10;;;;;;;3.88;100.00;101937.87;180506;1272;43170;-77
2023/01/25 09:59:54;;;;;;;16.10;9.50;;;;;;;3.93;100.00;101935.65;180266;1272;43038;-75
2023/01/25 10:04:25;;;;;;;15.30;10.80;;;;;;;3.92;100.00;101934.08;180607;1266;58281;-75
2023/01/25 10:08:57;;;;;;;13.30;9.40;;;;;;;3.89;100.00;101922.05;180987;1267;43686;-77
2023/01/25 10:13:04;;;;;;;16.90;12.20;;;;;;;3.85;100.00;101918.80;180964;1267;43437;-76
2023/01/25 10:17:22;;;;;;;14.90;12.20;;;;;;;3.94;100.00;101913.13;180991;1266;43684;-76
2023/01/25 10:21:59;;;;;;;12.90;9.30;;;;;;;3.93;100.00;101910.36;180992;1266;43798;-76
2023/01/25 10:26:15;;;;;;;12.70;9.90;;;;;;;3.95;100.00;101908.36;181011;1266;58592;-77
2023/01/25 10:30:58;;;;;;;12.90;9.80;;;;;;;3.94;100.00;101910.50;181170;1265;43038;-77
2023/01/25 10:35:25;;;;;;;24.90;9.70;;;;;;;3.93;100.00;101912.48;179706;1275;43796;-77
2023/01/25 10:39:48;;;;;;;11.50;8.70;;;;;;;4.01;100.00;101907.14;179937;1274;43234;-77
2023/01/25 10:44:20;;;;;;;9.60;8.40;;;;;;;4.10;100.00;101899.88;179780;1275;43152;-76
2023/01/25 10:48:32;;;;;;;11.40;9.70;;;;;;;4.22;100.00;101895.14;179883;1274;58709;-78
2023/01/25 10:52:37;;;;;;;9.20;7.40;;;;;;;4.24;100.00;101885.93;179628;1275;43759;-77
2023/01/25 10:56:44;;;;;;;11.70;7.40;;;;;;;4.34;100.00;101882.67;179806;1274;43044;-77
2023/01/25 11:00:51;;;;;;;15.90;10.30;;;;;;;4.45;100.00;101880.04;179895;1274;44201;-77
2023/01/25 11:04:55;;;;;;;16.70;12.00;;;;;;;4.57;99.86;101878.45;179626;1273;43783;-76
2023/01/25 11:09:00;;;;;;;16.50;11.90;;;;;;;4.68;98.93;101869.13;180330;1265;58752;-77
2023/01/25 11:13:18;;;;;;;14.50;10.50;;;;;;;4.64;98.29;101870.69;181080;1265;43723;-78
2023/01/25 11:17:30;;;;;;;51.00;28.50;;;;;;;4.63;98.13;101864.73;181103;1265;43749;-77
2023/01/25 11:22:00;;;;;;;13.40;10.40;;;;;;;4.54;98.33;101859.76;181011;1265;43077;-79
2023/01/25 11:26:18;;;;;;;22.40;11.80;;;;;;;4.42;98.23;101848.00;181065;1266;43092;-78
2023/01/25 11:30:22;;;;;;;16.40;11.70;;;;;;;4.42;98.20;101837.27;181008;1265;58684;-77
2023/01/25 11:34:28;;;;;;;15.70;11.20;;;;;;;4.43;97.68;101827.94;180933;1266;43696;-77
2023/01/25 11:38:32;;;;;;;11.20;8.60;;;;;;;4.52;98.66;101820.43;181010;1265;43701;-78
2023/01/25 11:53:14;;;;;;;15.20;11.50;;;;;;;4.53;98.44;101794.61;177134;1261;73791;-71
2023/01/25 12:03:03;;;;;;;12.50;10.10;;;;;;;4.55;98.31;101785.06;144974;1267;58014;-71
2023/01/25 12:07:35;;;;;;;15.60;12.50;;;;;;;4.51;97.25;101776.75;180976;1266;43813;-71
2023/01/25 12:11:38;;;;;;;19.20;14.40;;;;;;;4.36;97.90;101767.90;180938;1267;43044;-71
2023/01/25 12:16:09;;;;;;;17.00;11.60;;;;;;;4.34;98.06;101760.59;181021;1267;43560;-71
2023/01/25 12:20:45;;;;;;;14.10;9.60;;;;;;;4.39;98.14;101750.59;180957;1266;43015;-71
2023/01/25 12:24:59;;;;;;;20.10;12.30;;;;;;;4.39;98.46;101734.44;180998;1268;57934;-71
2023/01/25 12:29:25;;;;;;;30.10;17.00;;;;;;;4.41;98.57;101719.27;180995;1267;43426;-71
2023/01/25 12:33:35;;;;;;;18.60;11.70;;;;;;;4.47;98.13;101710.11;181068;1267;43711;-71
2023/01/25 12:38:16;;;;;;;20.80;10.10;;;;;;;4.52;97.92;101701.34;180585;1271;43136;-70
2023/01/25 12:42:28;;;;;;;10.70;9.00;;;;;;;4.54;97.66;101694.95;180437;1271;43046;-70
2023/01/25 12:46:54;;;;;;;25.60;14.10;;;;;;;4.59;97.72;101692.50;180571;1271;57944;-70
2023/01/25 12:50:58;;;;;;;11.50;9.80;;;;;;;4.66;98.08;101689.10;180705;1271;43021;-71
2023/01/25 12:55:05;;;;;;;18.70;11.50;;;;;;;4.59;97.02;101679.66;180713;1267;43812;-70
2023/01/25 13:26:58;;;;;;;30.10;19.90;;;;;;;4.56;95.25;101657.80;148587;1276;76053;-71
2023/01/25 13:31:02;;;;;;;47.50;30.50;;;;;;;4.65;95.75;101659.10;179375;1270;45959;-71
2023/01/25 13:35:25;;;;;;;97.90;59.20;;;;;;;4.55;95.58;101655.57;179221;1270;44653;-71
2023/01/25 13:39:31;;;;;;;30.70;17.60;;;;;;;4.48;96.47;101645.96;179154;1271;58693;-72
2023/01/25 13:43:34;;;;;;;24.10;15.50;;;;;;;4.49;96.87;101637.86;179215;1270;44005;-71
2023/01/25 13:47:39;;;;;;;25.50;16.10;;;;;;;4.48;97.32;101637.35;179423;1270;44741;-71
2023/01/25 13:51:42;;;;;;;29.30;20.20;;;;;;;4.54;96.85;101632.58;179290;1270;44005;-71
2023/01/25 13:55:52;;;;;;;19.70;14.10;;;;;;;4.53;96.94;101626.81;179103;1271;44613;-72
2023/01/25 14:00:00;;;;;;;18.90;12.40;;;;;;;4.54;96.49;101629.27;179476;1271;58964;-73
2023/01/25 14:04:21;;;;;;;55.90;29.60;;;;;;;4.53;96.16;101626.46;179385;1270;43595;-71
2023/01/25 14:08:25;;;;;;;41.90;26.50;;;;;;;4.55;95.95;101624.98;179704;1270;46019;-71
2023/01/25 14:12:40;;;;;;;28.70;17.30;;;;;;;4.57;95.95;101624.40;179333;1271;44630;-71
2023/01/25 14:16:44;;;;;;;14.70;12.20;;;;;;;4.59;95.98;101621.86;179258;1270;46107;-69
2023/01/25 14:20:50;;;;;;;15.30;11.00;;;;;;;4.60;96.08;101615.85;178927;1271;57965;-70
2023/01/25 14:25:18;;;;;;;17.00;9.80;;;;;;;4.58;95.41;101606.27;179126;1270;43555;-71
2023/01/25 14:29:21;;;;;;;;;;;;;;;4.61;95.62;101606.33;179617;1270;44150;-71
2023/01/25 14:33:40;;;;;;;17.70;10.60;;;;;;;4.61;95.06;101598.77;179470;1270;45876;-72
2023/01/25 14:37:44;;;;;;;14.10;11.30;;;;;;;4.63;95.04;101601.02;179371;1270;45952;-72
2023/01/25 14:41:51;;;;;;;11.50;8.30;;;;;;;4.67;95.67;101591.70;179178;1270;59469;-73
2023/01/25 14:46:23;;;;;;;16.20;10.50;;;;;;;4.72;95.03;101586.95;179485;1270;44676;-72
2023/01/25 14:51:01;;;;;;;22.50;16.50;;;;;;;4.70;94.44;101583.16;179651;1270;45908;-72
2023/01/25 14:55:08;;;;;;;30.40;18.50;;;;;;;4.64;94.72;101571.80;179258;1270;45586;-73
2023/01/25 14:59:46;;;;;;;22.30;16.80;;;;;;;4.60;94.92;101568.05;179111;1271;44610;-72
2023/01/25 15:03:51;;;;;;;19.40;13.60;;;;;;;4.56;95.33;101566.08;179308;1270;58215;-72
2023/01/25 15:07:58;;;;;;;16.00;12.50;;;;;;;4.58;95.63;101551.96;179334;1274;46138;-72
2023/01/25 15:12:15;;;;;;;27.90;20.10;;;;;;;4.51;95.27;101541.86;179240;1275;43802;-72
2023/01/25 15:16:17;;;;;;;20.00;13.90;;;;;;;4.49;95.60;101537.37;179447;1271;45747;-72
2023/01/25 15:20:32;;;;;;;17.50;11.50;;;;;;;4.48;94.98;101526.34;179496;1270;43625;-72
2023/01/25 15:24:35;;;;;;;18.30;12.50;;;;;;;4.45;95.94;101522.58;179146;1270;58226;-72
2023/01/25 15:28:40;;;;;;;17.60;10.80;;;;;;;4.37;95.59;101515.64;179035;1270;44987;-72
2023/01/25 15:32:44;;;;;;;31.20;17.50;;;;;;;4.35;95.50;101508.52;179386;1270;44179;-71
2023/01/25 15:36:47;;;;;;;36.50;24.50;;;;;;;4.38;95.60;101504.38;179542;1270;43802;-72
2023/01/25 15:41:21;;;;;;;32.30;21.50;;;;;;;4.38;95.79;101499.63;179619;1268;44169;-69
2023/01/25 15:45:24;;;;;;;34.00;20.00;;;;;;;4.34;96.11;101502.26;179389;1269;57099;-70
2023/01/25 15:49:30;;;;;;;31.30;18.30;;;;;;;4.35;96.09;101494.83;179221;1270;46018;-70
2023/01/25 15:53:34;;;;;;;20.80;17.00;;;;;;;4.39;96.44;101489.05;179499;1270;43602;-70
2023/01/25 15:58:05;;;;;;;28.60;17.30;;;;;;;4.41;96.32;101473.86;179551;1268;44630;-71
2023/01/25 16:02:11;;;;;;;30.80;21.30;;;;;;;4.41;96.35;101469.48;179634;1268;44771;-71
2023/01/25 16:06:59;;;;;;;;;;;;;;;4.32;96.57;101472.96;180006;1268;57373;-71
2023/01/25 16:11:03;;;;;;;31.00;19.70;;;;;;;4.23;96.99;101464.86;179418;1268;43439;-71
2023/01/25 16:15:07;;;;;;;27.80;19.60;;;;;;;4.19;97.38;101462.92;179435;1272;43781;-70
2023/01/25 16:19:20;;;;;;;23.70;18.10;;;;;;;4.16;97.34;101459.68;179416;1269;43844;-70
2023/01/25 16:23:25;;;;;;;28.10;19.70;;;;;;;4.18;97.12;101454.53;179526;1268;45940;-70
2023/01/25 16:27:34;;;;;;;30.40;19.80;;;;;;;4.20;97.16;101453.56;179489;1268;57933;-70
2023/01/25 16:31:37;;;;;;;29.40;19.00;;;;;;;4.20;97.13;101443.05;179501;1268;43763;-70
2023/01/25 16:35:41;;;;;;;32.60;22.50;;;;;;;4.17;97.13;101441.23;179433;1268;46031;-70
2023/01/25 16:39:56;;;;;;;29.90;21.00;;;;;;;4.15;97.08;101441.98;179371;1270;44814;-71
2023/01/25 16:43:58;;;;;;;33.80;22.30;;;;;;;4.14;97.11;101434.64;179460;1268;44778;-70
2023/01/25 16:48:01;;;;;;;38.80;21.70;;;;;;;4.12;97.31;101426.79;179418;1268;57947;-70
2023/01/25 16:52:05;;;;;;;43.30;26.50;;;;;;;4.12;97.18;101418.90;179468;1270;43524;-70
2023/01/25 16:56:30;;;;;;;47.10;28.30;;;;;;;4.08;97.27;101409.39;179251;1268;44141;-70
2023/01/25 17:00:33;;;;;;;40.10;21.60;;;;;;;4.00;97.61;101404.42;178994;1268;45976;-71
2023/01/25 17:04:36;;;;;;;37.20;21.80;;;;;;;3.98;97.63;101402.73;179414;1268;45975;-70
2023/01/25 17:08:39;;;;;;;40.60;24.80;;;;;;;4.00;98.10;101395.13;179417;1268;59631;-70
2023/01/25 17:12:42;;;;;;;38.20;24.30;;;;;;;4.04;98.09;101391.65;179625;1268;44738;-71
2023/01/25 17:16:46;;;;;;;34.60;21.90;;;;;;;4.07;97.96;101392.59;179896;1270;43711;-70
2023/01/25 17:21:16;;;;;;;37.00;22.70;;;;;;;4.10;97.99;101389.48;179716;1268;44798;-69
2023/01/25 17:25:19;;;;;;;31.30;19.90;;;;;;;4.13;97.85;101385.88;179516;1268;45977;-70
2023/01/25 17:29:23;;;;;;;30.80;23.50;;;;;;;4.12;97.62;101375.55;179460;1268;60086;-70
2023/01/25 17:33:27;;;;;;;37.60;26.10;;;;;;;4.14;97.80;101374.06;179358;1268;46024;-70
2023/01/25 17:37:30;;;;;;;34.70;21.70;;;;;;;4.17;97.52;101366.25;179176;1268;46117;-70
2023/01/25 17:41:33;;;;;;;40.30;23.00;;;;;;;4.18;97.33;101368.13;179153;1268;44273;-71
2023/01/25 17:45:39;;;;;;;41.90;26.70;;;;;;;4.17;97.04;101370.45;179444;1268;45925;-70
2023/01/25 17:49:42;;;;;;;52.20;28.20;;;;;;;4.06;97.75;101374.21;179330;1268;57920;-70
2023/01/25 17:53:45;;;;;;;42.40;28.50;;;;;;;4.00;97.82;101363.37;179380;1272;45946;-70
2023/01/25 17:57:50;;;;;;;36.70;24.00;;;;;;;3.90;98.28;101367.56;179234;1270;43827;-70
2023/01/25 18:01:53;;;;;;;44.40;25.10;;;;;;;3.86;98.85;101361.22;179380;1268;45988;-69
2023/01/25 18:05:57;;;;;;;34.80;23.20;;;;;;;3.82;99.12;101356.10;180016;1268;43777;-69
2023/01/25 18:15:53;;;;;;;147.80;78.70;;;;;;;3.79;99.77;101344.27;179599;1268;43917;-67
2023/01/25 18:19:56;;;;;;;263.10;145.50;;;;;;;3.77;99.91;101338.39;179453;1268;43905;-67
2023/01/25 18:24:04;;;;;;;213.90;131.10;;;;;;;3.78;99.96;101338.02;179214;1267;43600;-68
2023/01/25 18:28:27;;;;;;;79.20;49.10;;;;;;;3.80;99.89;101333.89;178189;1276;45999;-68
2023/01/25 18:32:31;;;;;;;46.60;27.40;;;;;;;3.82;99.75;101329.06;177966;1274;58492;-67
2023/01/25 18:36:35;;;;;;;40.00;23.30;;;;;;;3.87;99.71;101332.40;178074;1274;43645;-67
2023/01/25 18:41:33;;;;;;;42.00;26.10;;;;;;;3.92;99.20;101325.38;178029;1273;46069;-67
2023/01/25 18:45:38;;;;;;;;;;;;;;;3.95;98.49;101317.74;178067;1274;44655;-67
2023/01/25 18:50:07;;;;;;;30.80;18.60;;;;;;;3.95;98.25;101316.69;178067;1273;44547;-68
2023/01/25 18:54:10;;;;;;;31.80;20.10;;;;;;;3.95;97.92;101307.89;177907;1275;57118;-68
2023/01/25 18:59:18;;;;;;;27.20;16.10;;;;;;;3.96;97.51;101305.95;178213;1270;44830;-68
2023/01/25 19:03:21;;;;;;;25.80;19.50;;;;;;;3.96;97.48;101301.75;179030;1270;46065;-69
2023/01/25 19:07:25;;;;;;;21.60;14.00;;;;;;;3.94;97.29;101300.73;178831;1268;45967;-69
2023/01/25 19:11:28;;;;;;;29.70;17.20;;;;;;;3.85;97.20;101297.19;178985;1269;43637;-68
2023/01/25 19:15:31;;;;;;;25.40;15.00;;;;;;;3.79;97.73;101301.29;179464;1269;57944;-70
2023/01/25 19:19:34;;;;;;;26.30;12.90;;;;;;;3.77;98.00;101296.63;178906;1270;45923;-68
2023/01/25 19:23:39;;;;;;;20.50;13.70;;;;;;;3.71;98.11;101289.98;179072;1268;45971;-67
2023/01/25 19:28:37;;;;;;;18.30;12.80;;;;;;;3.72;98.55;101280.14;178901;1270;46002;-68
2023/01/25 19:32:40;;;;;;;;;;;;;;;3.74;98.17;101270.08;179057;1268;43773;-68
2023/01/25 19:36:48;;;;;;;26.10;14.70;;;;;;;3.72;98.13;101267.86;178863;1270;58014;-68
2023/01/25 19:40:51;;;;;;;22.00;17.10;;;;;;;3.60;98.46;101267.09;178845;1270;45973;-68
2023/01/25 19:44:54;;;;;;;25.20;17.20;;;;;;;3.57;99.10;101253.66;179113;1269;46072;-68
2023/01/25 19:49:00;;;;;;;25.40;16.50;;;;;;;3.58;99.34;101247.66;178940;1269;45958;-68
2023/01/25 19:53:13;;;;;;;26.30;18.00;;;;;;;3.60;99.53;101237.98;178961;1270;44980;-68
2023/01/25 19:57:16;;;;;;;27.40;18.30;;;;;;;3.57;99.47;101232.27;178844;1269;57928;-69
2023/01/25 20:01:22;;;;;;;31.70;18.00;;;;;;;3.53;99.85;101222.75;178858;1269;46614;-67
2023/01/25 20:05:26;;;;;;;;;;;;;;;3.60;99.99;101214.12;178967;1268;44822;-67
2023/01/25 20:09:29;;;;;;;24.60;17.40;;;;;;;3.63;99.81;101216.98;178490;1270;43268;-68
2023/01/25 20:13:35;;;;;;;22.60;15.50;;;;;;;3.58;99.70;101215.74;179035;1270;45000;-68
2023/01/25 20:17:38;;;;;;;30.10;19.20;;;;;;;3.56;99.91;101206.90;178934;1268;58176;-68
2023/01/25 20:21:42;;;;;;;35.60;22.80;;;;;;;3.57;99.97;101204.58;178961;1270;45358;-68
2023/01/25 20:26:13;;;;;;;35.40;19.30;;;;;;;3.56;100.00;101207.05;179211;1270;43838;-69